Time;durP1;ratioP1;P1;durP2;ratioP2;P2;SDS_P1;SDS_P2;PMS_P1;PMS_P2;Temp;Humidity;BMP_temperature;BMP_pressure;BME280_temperature;BME280_humidity;BME280_pressure;Samples;Min_cycle;Max_cycle;Signal;HPM_P1;HPM_P2
2021/04/19 00:01:12;;;;;;;116.70;82.13;;;180.00;2252.80;;;;;;5110175;28;20065;-82
2021/04/19 00:03:38;;;;;;;124.43;86.65;;;180.10;2252.80;;;;;;5094241;28;20116;-82
2021/04/19 00:06:05;;;;;;;139.07;96.03;;;180.10;2252.80;;;;;;5093100;28;20028;-80
2021/04/19 00:08:30;;;;;;;167.05;110.80;;;204.80;2252.80;;;;;;5110564;28;20487;-81
2021/04/19 00:10:57;;;;;;;148.32;100.97;;;180.10;2252.80;;;;;;5094005;28;20028;-82
2021/04/19 00:13:23;;;;;;;136.05;94.82;;;180.10;2252.80;;;;;;5109954;28;20020;-80
2021/04/19 00:15:49;;;;;;;135.70;93.70;;;180.00;2252.80;;;;;;5109959;28;20024;-82
2021/04/19 00:18:15;;;;;;;130.65;86.90;;;180.10;2252.80;;;;;;5109724;28;20464;-80
2021/04/19 00:20:41;;;;;;;119.70;80.25;;;179.90;2252.80;;;;;;5109781;28;20111;-82
2021/04/19 00:23:08;;;;;;;119.53;79.55;;;179.90;2252.80;;;;;;5108869;28;20026;-83
2021/04/19 00:25:34;;;;;;;124.90;83.60;;;179.80;2252.80;;;;;;5092964;28;20364;-82
2021/04/19 00:28:00;;;;;;;117.68;77.35;;;179.70;2252.80;;;;;;5091869;28;20032;-82
2021/04/19 00:30:26;;;;;;;119.00;80.05;;;179.80;2252.80;;;;;;5093338;28;20058;-82
2021/04/19 00:32:52;;;;;;;132.98;91.07;;;179.80;2252.80;;;;;;5095301;28;20475;-82
2021/04/19 00:35:18;;;;;;;137.88;95.25;;;179.80;2252.80;;;;;;5097021;28;20169;-81
2021/04/19 00:37:43;;;;;;;131.35;89.00;;;179.90;2252.80;;;;;;5096985;28;20139;-83
2021/04/19 00:40:15;;;;;;;123.82;84.72;;;180.00;2252.80;;;;;;5096737;28;20051;-82
2021/04/19 00:42:43;;;;;;;136.93;91.65;;;180.10;2252.80;;;;;;5098493;28;20115;-82
2021/04/19 00:45:10;;;;;;;118.43;82.13;;;180.10;2252.80;;;;;;5096838;28;20107;-82
2021/04/19 00:47:37;;;;;;;107.97;75.93;;;180.10;2252.80;;;;;;5096543;28;20047;-82
2021/04/19 00:50:07;;;;;;;102.40;71.65;;;204.80;2252.80;;;;;;5096688;28;20131;-81
2021/04/19 00:52:35;;;;;;;133.52;85.22;;;204.90;2252.80;;;;;;5095248;28;20032;-81
2021/04/19 00:55:01;;;;;;;146.73;94.10;;;204.90;2252.80;;;;;;5096561;28;20067;-80
2021/04/19 00:57:30;;;;;;;127.95;82.88;;;180.10;2252.80;;;;;;5095559;28;20028;-81
2021/04/19 00:59:56;;;;;;;116.45;80.13;;;204.80;2252.80;;;;;;5095954;28;20024;-81
2021/04/19 01:02:22;;;;;;;117.57;74.20;;;204.80;2252.80;;;;;;5096250;28;20052;-82
2021/04/19 01:04:48;;;;;;;107.95;73.53;;;204.90;2252.80;;;;;;5096242;28;20031;-81
2021/04/19 01:07:14;;;;;;;112.38;77.25;;;204.90;2252.80;;;;;;5096433;28;20361;-79
2021/04/19 01:09:39;;;;;;;114.57;76.32;;;204.90;2252.80;;;;;;5097578;28;20410;-79
2021/04/19 01:12:06;;;;;;;115.05;72.63;;;204.80;2252.80;;;;;;5096306;28;20377;-81
2021/04/19 01:14:32;;;;;;;127.93;82.35;;;204.80;2252.80;;;;;;5097499;28;20031;-82
2021/04/19 01:16:57;;;;;;;115.65;75.45;;;204.80;2252.80;;;;;;5097017;28;20345;-82
2021/04/19 01:19:23;;;;;;;100.22;67.43;;;204.80;2252.80;;;;;;5096118;28;20056;-82
2021/04/19 01:21:49;;;;;;;86.75;60.05;;;204.90;2252.80;;;;;;5096024;28;20032;-82
2021/04/19 01:24:15;;;;;;;68.63;45.75;;;204.80;2252.80;;;;;;5095855;28;20201;-82
2021/04/19 01:26:41;;;;;;;74.03;50.88;;;204.90;2252.80;;;;;;5095591;28;20081;-81
2021/04/19 01:29:06;;;;;;;72.10;54.50;;;180.10;2252.80;;;;;;5095404;28;20032;-80
2021/04/19 01:31:32;;;;;;;64.13;46.38;;;180.10;2252.80;;;;;;5095991;28;20067;-82
2021/04/19 01:33:59;;;;;;;64.45;44.35;;;179.70;2252.80;;;;;;5096470;28;20032;-81
2021/04/19 01:36:24;;;;;;;53.15;37.58;;;180.00;2252.80;;;;;;5095601;28;20047;-80
2021/04/19 01:38:51;;;;;;;56.45;38.33;;;180.10;2252.80;;;;;;5095715;28;20391;-81
2021/04/19 01:41:17;;;;;;;62.00;40.95;;;204.80;2252.80;;;;;;5095044;28;20113;-82
2021/04/19 01:43:43;;;;;;;65.40;41.92;;;204.80;2252.80;;;;;;5094141;28;20434;-80
2021/04/19 01:46:09;;;;;;;56.20;38.22;;;204.90;2252.80;;;;;;5095510;28;20409;-80
2021/04/19 01:48:35;;;;;;;48.22;34.42;;;204.90;2252.80;;;;;;5095733;28;20165;-80
2021/04/19 01:51:00;;;;;;;44.95;31.75;;;204.90;2252.80;;;;;;5094942;28;20024;-80
2021/04/19 01:53:26;;;;;;;40.92;30.67;;;204.90;2252.80;;;;;;5092581;28;20020;-82
2021/04/19 01:55:52;;;;;;;33.05;24.70;;;204.80;2252.80;;;;;;5108165;28;20032;-82
2021/04/19 01:58:21;;;;;;;35.80;25.40;;;179.90;2252.80;;;;;;5093218;28;20028;-82
2021/04/19 02:01:08;;;;;;;34.30;25.05;;;179.80;2252.80;;;;;;5093109;28;20032;-80
2021/04/19 02:03:53;;;;;;;32.55;23.35;;;179.80;2252.80;;;;;;5092757;28;20102;-82
2021/04/19 02:06:50;;;;;;;32.60;23.70;;;179.70;2252.80;;;;;;5095633;28;20036;-82
2021/04/19 02:09:20;;;;;;;32.60;22.75;;;179.90;2252.80;;;;;;5110459;28;20024;-81
2021/04/19 02:12:21;;;;;;;28.40;22.10;;;179.80;2252.80;;;;;;5094739;28;20042;-82
2021/04/19 02:14:55;;;;;;;26.65;20.50;;;179.70;2252.80;;;;;;5084017;28;20501;-80
2021/04/19 02:18:00;;;;;;;28.17;20.83;;;179.80;2252.80;;;;;;5095032;28;20472;-81
2021/04/19 02:20:39;;;;;;;28.73;20.13;;;179.70;2252.80;;;;;;5093657;28;20059;-82
2021/04/19 02:23:16;;;;;;;29.48;19.60;;;179.80;2252.80;;;;;;5093832;28;20032;-82
2021/04/19 02:25:43;;;;;;;27.52;20.48;;;179.90;2252.80;;;;;;5094696;28;20028;-81
2021/04/19 02:28:22;;;;;;;30.02;19.38;;;180.00;2252.80;;;;;;5095112;28;20028;-82
2021/04/19 02:30:53;;;;;;;25.00;17.67;;;179.80;2252.80;;;;;;5094703;28;20467;-83
2021/04/19 02:33:22;;;;;;;24.67;18.65;;;179.60;2252.80;;;;;;5094861;28;20115;-83
2021/04/19 02:35:49;;;;;;;27.35;19.05;;;179.60;2252.80;;;;;;5094640;28;20032;-81
2021/04/19 02:38:19;;;;;;;26.30;18.00;;;179.60;2252.80;;;;;;5094137;28;20024;-80
2021/04/19 02:40:46;;;;;;;27.65;18.00;;;179.70;2252.80;;;;;;5094573;28;20019;-82
2021/04/19 02:43:14;;;;;;;28.50;18.92;;;179.80;2252.80;;;;;;5094414;28;20031;-83
2021/04/19 02:45:42;;;;;;;28.27;21.17;;;180.00;2252.80;;;;;;5094243;28;20036;-82
2021/04/19 02:48:09;;;;;;;33.63;25.23;;;180.10;2252.80;;;;;;5094349;28;20127;-82
2021/04/19 02:50:35;;;;;;;37.22;26.98;;;180.00;2252.80;;;;;;5095504;28;20074;-82
2021/04/19 02:53:02;;;;;;;35.80;27.35;;;180.10;2252.80;;;;;;5095385;28;20020;-81
2021/04/19 02:55:30;;;;;;;33.65;25.52;;;180.10;2252.80;;;;;;5094792;28;20028;-80
2021/04/19 02:58:04;;;;;;;44.08;31.77;;;180.10;2252.80;;;;;;5094322;28;20468;-82
2021/04/19 03:00:59;;;;;;;42.50;31.63;;;180.10;2252.80;;;;;;5094083;28;20020;-80
2021/04/19 03:03:28;;;;;;;39.65;29.70;;;204.80;2252.80;;;;;;5090045;28;20055;-83
2021/04/19 03:05:56;;;;;;;35.20;25.98;;;180.00;2252.80;;;;;;5094075;28;20036;-81
2021/04/19 03:08:23;;;;;;;31.58;23.42;;;180.10;2252.80;;;;;;5094504;28;20031;-80
2021/04/19 03:10:55;;;;;;;29.58;21.90;;;180.00;2252.80;;;;;;5093745;28;20114;-83
2021/04/19 03:13:23;;;;;;;27.83;20.70;;;180.00;2252.80;;;;;;5095248;28;20020;-83
2021/04/19 03:15:54;;;;;;;32.72;23.45;;;180.10;2252.80;;;;;;5094120;28;20090;-82
2021/04/19 03:18:20;;;;;;;25.20;18.17;;;180.00;2252.80;;;;;;5095204;28;20379;-81
2021/04/19 03:21:08;;;;;;;25.92;16.73;;;180.00;2252.80;;;;;;5093754;28;20028;-82
2021/04/19 03:23:38;;;;;;;22.45;15.32;;;179.80;2252.80;;;;;;5092629;28;20024;-81
2021/04/19 03:26:06;;;;;;;27.73;17.27;;;179.80;2252.80;;;;;;5093778;28;20066;-84
2021/04/19 03:28:34;;;;;;;28.77;19.90;;;179.90;2252.80;;;;;;5092651;28;20055;-80
2021/04/19 03:31:06;;;;;;;33.60;21.27;;;180.00;2252.80;;;;;;5093758;28;20024;-83
2021/04/19 03:33:36;;;;;;;26.35;19.90;;;180.00;2252.80;;;;;;5093678;28;20119;-83
2021/04/19 03:36:03;;;;;;;23.88;17.95;;;179.80;2252.80;;;;;;5093600;28;20032;-84
2021/04/19 03:38:31;;;;;;;26.77;18.90;;;180.00;2252.80;;;;;;5093238;28;20024;-81
2021/04/19 03:40:57;;;;;;;23.83;17.45;;;180.00;2252.80;;;;;;5093196;28;20073;-82
2021/04/19 03:43:26;;;;;;;31.05;21.27;;;180.10;2252.80;;;;;;5094705;28;20024;-80
2021/04/19 03:45:57;;;;;;;28.17;19.42;;;180.10;2252.80;;;;;;5093349;28;20425;-83
2021/04/19 03:48:26;;;;;;;28.90;19.70;;;180.10;2252.80;;;;;;5093191;28;20032;-82
2021/04/19 03:51:13;;;;;;;26.92;20.80;;;204.80;2252.80;;;;;;5093271;28;20024;-83
2021/04/19 03:53:41;;;;;;;27.42;20.45;;;180.10;2252.80;;;;;;5092132;28;20077;-82
2021/04/19 03:56:10;;;;;;;23.38;17.90;;;180.10;2252.80;;;;;;5093008;28;20513;-82
2021/04/19 03:58:35;;;;;;;26.65;19.13;;;180.10;2252.80;;;;;;5092366;28;20035;-82
2021/04/19 04:01:07;;;;;;;25.30;17.73;;;180.10;2252.80;;;;;;5093201;28;20024;-81
2021/04/19 04:03:34;;;;;;;26.58;19.15;;;204.80;2252.80;;;;;;5092970;28;20055;-82
2021/04/19 04:06:00;;;;;;;21.25;15.32;;;204.80;2252.80;;;;;;5093021;28;20032;-81
2021/04/19 04:08:28;;;;;;;24.58;16.23;;;180.10;2252.80;;;;;;5092498;28;20024;-82
2021/04/19 04:10:55;;;;;;;23.10;16.00;;;180.00;2252.80;;;;;;5093096;28;20097;-81
2021/04/19 04:13:21;;;;;;;20.88;15.18;;;204.80;2252.80;;;;;;5093126;28;20547;-81
2021/04/19 04:15:52;;;;;;;22.15;14.80;;;204.80;2252.80;;;;;;5092744;28;20028;-81
2021/04/19 04:18:18;;;;;;;19.20;14.88;;;204.80;2252.80;;;;;;5092887;28;20028;-82
2021/04/19 04:20:45;;;;;;;19.00;14.30;;;204.90;2252.80;;;;;;5093084;28;20361;-82
2021/04/19 04:23:11;;;;;;;26.13;17.40;;;205.20;2252.80;;;;;;5093766;28;20460;-83
2021/04/19 04:25:38;;;;;;;23.52;17.33;;;204.80;2252.80;;;;;;5092580;28;20028;-81
2021/04/19 04:28:05;;;;;;;28.77;19.88;;;204.80;2252.80;;;;;;5091601;28;20379;-82
2021/04/19 04:30:33;;;;;;;39.70;29.95;;;204.80;2252.80;;;;;;5092971;28;20464;-82
2021/04/19 04:32:58;;;;;;;46.63;30.55;;;204.80;2252.80;;;;;;5092026;28;20028;-79
2021/04/19 04:35:24;;;;;;;38.33;28.70;;;204.80;2252.80;;;;;;5092822;28;20387;-83
2021/04/19 04:37:50;;;;;;;37.13;25.58;;;204.90;2252.80;;;;;;5092556;28;20077;-82
2021/04/19 04:40:16;;;;;;;35.70;26.88;;;205.00;2252.80;;;;;;5092694;28;20434;-82
2021/04/19 04:42:45;;;;;;;35.70;24.70;;;205.00;2252.80;;;;;;5092810;28;20403;-82
2021/04/19 04:45:12;;;;;;;33.75;25.10;;;204.90;2252.80;;;;;;5092338;28;20521;-81
2021/04/19 04:47:48;;;;;;;40.30;28.83;;;204.80;2252.80;;;;;;5092676;28;20028;-82
2021/04/19 04:50:16;;;;;;;39.10;28.73;;;204.80;2252.80;;;;;;5092692;28;20119;-83
2021/04/19 04:53:04;;;;;;;44.72;29.60;;;204.90;2252.80;;;;;;5109270;28;20031;-83
2021/04/19 04:55:31;;;;;;;135.90;76.45;;;204.80;2252.80;;;;;;5092318;28;20078;-82
2021/04/19 04:57:58;;;;;;;187.98;103.90;;;204.80;2252.80;;;;;;5091536;28;20432;-81
2021/04/19 05:00:24;;;;;;;75.63;50.85;;;204.80;2252.80;;;;;;5092650;28;20030;-81
2021/04/19 05:02:52;;;;;;;70.55;49.35;;;204.80;2252.80;;;;;;5093881;28;20048;-82
2021/04/19 05:05:18;;;;;;;68.30;49.88;;;204.90;2252.80;;;;;;5092211;28;20028;-84
2021/04/19 05:07:46;;;;;;;66.85;48.75;;;204.80;2252.80;;;;;;5092487;28;20035;-82
2021/04/19 05:10:13;;;;;;;83.28;60.55;;;204.90;2252.80;;;;;;5092417;28;20120;-82
2021/04/19 05:12:39;;;;;;;74.18;54.97;;;204.90;2252.80;;;;;;5092515;28;20028;-82
2021/04/19 05:15:14;;;;;;;73.72;54.05;;;204.90;2252.80;;;;;;5091355;28;20489;-83
2021/04/19 05:17:45;;;;;;;79.82;65.55;;;204.90;2252.80;;;;;;5109958;28;20032;-82
2021/04/19 05:20:13;;;;;;;60.83;48.13;;;204.80;2252.80;;;;;;5112475;28;20039;-81
2021/04/19 05:22:40;;;;;;;49.70;38.63;;;204.80;2252.80;;;;;;5113211;28;20024;-83
2021/04/19 05:25:07;;;;;;;51.08;37.17;;;204.80;2252.80;;;;;;5113039;28;20122;-84
2021/04/19 05:27:33;;;;;;;63.33;45.72;;;204.80;2252.80;;;;;;5112969;28;20032;-83
2021/04/19 05:29:59;;;;;;;54.25;39.88;;;204.80;2252.80;;;;;;5113372;28;20111;-82
2021/04/19 05:32:30;;;;;;;39.70;29.73;;;204.80;2252.80;;;;;;5112881;28;20045;-81
2021/04/19 05:34:56;;;;;;;41.35;28.88;;;180.10;2252.80;;;;;;5097532;28;20505;-82
2021/04/19 05:37:24;;;;;;;34.42;26.17;;;179.90;2252.80;;;;;;5113612;28;20521;-84
2021/04/19 05:39:51;;;;;;;39.88;27.75;;;180.00;2252.80;;;;;;5110897;28;20020;-82
2021/04/19 05:42:17;;;;;;;45.38;31.02;;;180.10;2252.80;;;;;;5095308;28;20050;-83
2021/04/19 05:44:44;;;;;;;43.65;32.42;;;204.80;2252.80;;;;;;5094266;28;20028;-82
2021/04/19 05:47:12;;;;;;;33.58;25.08;;;204.80;2252.80;;;;;;5094523;28;20463;-83
2021/04/19 05:49:39;;;;;;;32.45;21.40;;;204.90;2252.80;;;;;;5094721;28;20074;-82
2021/04/19 05:52:07;;;;;;;29.10;21.88;;;180.10;2252.80;;;;;;5095655;28;20024;-82
2021/04/19 05:54:35;;;;;;;29.02;22.33;;;204.80;2252.80;;;;;;5097006;28;20047;-83
2021/04/19 05:57:19;;;;;;;31.80;22.90;;;204.80;2252.80;;;;;;5095484;28;20072;-81
2021/04/19 06:00:20;;;;;;;32.22;22.63;;;204.80;2252.80;;;;;;5095537;28;20074;-83
2021/04/19 06:03:05;;;;;;;30.88;22.23;;;180.10;2252.80;;;;;;5073612;28;20131;-82
2021/04/19 06:05:40;;;;;;;27.00;19.13;;;204.80;2252.80;;;;;;5091559;28;20040;-78
2021/04/19 06:08:13;;;;;;;30.35;20.92;;;204.90;2252.80;;;;;;5094935;28;20067;-78
2021/04/19 06:11:04;;;;;;;26.48;19.95;;;204.90;2252.80;;;;;;5095051;28;20111;-76
2021/04/19 06:13:32;;;;;;;23.85;18.35;;;205.00;2252.80;;;;;;5092901;28;20067;-77
2021/04/19 06:16:00;;;;;;;22.20;16.42;;;204.90;2252.80;;;;;;5094678;28;20028;-78
2021/04/19 06:18:29;;;;;;;21.77;16.92;;;204.80;2252.80;;;;;;5096154;28;20024;-78
2021/04/19 06:20:56;;;;;;;24.20;15.45;;;204.90;2252.80;;;;;;5095031;28;20021;-82
2021/04/19 06:23:23;;;;;;;21.40;15.98;;;204.90;2252.80;;;;;;5093626;28;20115;-82
2021/04/19 06:25:50;;;;;;;67.70;48.58;;;205.00;2252.80;;;;;;5111008;28;20056;-83
2021/04/19 06:28:16;;;;;;;116.82;83.20;;;205.00;2252.80;;;;;;5094850;28;20036;-79
2021/04/19 06:30:44;;;;;;;35.50;27.48;;;205.20;2252.80;;;;;;5093346;28;20417;-83
2021/04/19 06:33:19;;;;;;;33.17;23.17;;;205.00;2252.80;;;;;;5095037;28;20031;-83
2021/04/19 06:35:45;;;;;;;36.42;24.55;;;205.00;2252.80;;;;;;5095015;28;20031;-83
2021/04/19 06:38:12;;;;;;;36.53;27.48;;;205.00;2252.80;;;;;;5094916;28;20527;-83
2021/04/19 06:40:39;;;;;;;40.92;27.75;;;205.10;2252.80;;;;;;5092703;28;20028;-85
2021/04/19 06:43:06;;;;;;;38.03;26.85;;;205.20;2252.80;;;;;;5089183;28;20031;-83
2021/04/19 06:45:36;;;;;;;50.50;28.40;;;204.90;2252.80;;;;;;5108248;28;20032;-85
2021/04/19 06:48:10;;;;;;;44.20;30.10;;;205.20;2252.80;;;;;;5086589;28;20050;-84
2021/04/19 06:50:37;;;;;;;48.30;31.10;;;205.20;2252.80;;;;;;5092057;28;20467;-84
2021/04/19 06:53:03;;;;;;;48.55;31.17;;;205.30;2252.80;;;;;;5111399;28;20375;-79
2021/04/19 06:55:30;;;;;;;39.03;25.00;;;205.30;2252.80;;;;;;5097244;28;20024;-81
2021/04/19 06:57:57;;;;;;;41.15;25.65;;;205.20;2252.80;;;;;;5093778;28;20274;-79
2021/04/19 07:00:29;;;;;;;27.90;21.65;;;205.30;2252.80;;;;;;5107828;28;20024;-79
2021/04/19 07:03:00;;;;;;;31.92;21.55;;;205.10;2252.80;;;;;;5093572;28;20044;-80
2021/04/19 07:05:28;;;;;;;32.83;24.70;;;205.00;2252.80;;;;;;5094682;28;20480;-77
2021/04/19 07:08:19;;;;;;;31.23;23.88;;;205.00;2252.80;;;;;;5109092;28;20066;-77
2021/04/19 07:10:46;;;;;;;39.30;27.80;;;205.20;2252.80;;;;;;5109997;28;20020;-77
2021/04/19 07:13:15;;;;;;;31.25;24.27;;;205.30;2252.80;;;;;;5110274;27;20020;-79
2021/04/19 07:15:45;;;;;;;35.80;23.98;;;205.40;2252.80;;;;;;5094710;28;20039;-77
2021/04/19 07:18:12;;;;;;;39.70;28.48;;;205.50;2252.80;;;;;;5110067;28;20020;-78
2021/04/19 07:20:38;;;;;;;46.38;30.75;;;205.60;2252.80;;;;;;5094879;28;20024;-79
2021/04/19 07:23:05;;;;;;;34.40;25.13;;;205.60;2252.80;;;;;;5094878;28;20047;-79
2021/04/19 07:25:31;;;;;;;29.83;23.45;;;205.40;2252.80;;;;;;5110097;28;20486;-78
2021/04/19 07:27:59;;;;;;;43.22;25.55;;;205.30;2252.80;;;;;;5110516;28;20521;-80
2021/04/19 07:30:25;;;;;;;31.55;23.10;;;205.50;2252.80;;;;;;5094308;28;20031;-79
2021/04/19 07:32:51;;;;;;;31.08;25.38;;;205.60;2252.80;;;;;;5094128;28;20426;-80
2021/04/19 07:35:28;;;;;;;32.33;23.73;;;205.60;2252.80;;;;;;5094469;28;20035;-81
2021/04/19 07:37:59;;;;;;;35.80;25.98;;;205.60;2252.80;;;;;;5094645;28;20020;-79
2021/04/19 07:40:32;;;;;;;30.20;21.60;;;205.30;2252.80;;;;;;5109992;28;20028;-78
2021/04/19 07:43:23;;;;;;;29.55;23.27;;;205.40;2252.80;;;;;;5110272;28;20020;-79
2021/04/19 07:46:08;;;;;;;29.48;20.55;;;205.50;2252.80;;;;;;5094243;28;20025;-78
2021/04/19 07:48:39;;;;;;;25.38;19.90;;;205.40;2252.80;;;;;;5094163;28;20430;-79
2021/04/19 07:51:31;;;;;;;35.25;26.23;;;205.50;2252.80;;;;;;5094384;28;20027;-80
2021/04/19 07:54:18;;;;;;;25.55;19.13;;;205.60;2252.80;;;;;;5109390;28;20115;-79
2021/04/19 07:56:47;;;;;;;24.48;19.63;;;205.40;2252.80;;;;;;5110052;28;20056;-78
2021/04/19 07:59:22;;;;;;;26.13;20.70;;;205.40;2252.80;;;;;;5094580;28;20093;-79
2021/04/19 08:02:01;;;;;;;28.13;20.27;;;205.50;2252.80;;;;;;5093998;28;20028;-78
2021/04/19 08:04:29;;;;;;;27.25;21.45;;;205.60;2252.80;;;;;;5094037;28;20036;-79
2021/04/19 08:06:55;;;;;;;26.80;20.40;;;205.70;2252.80;;;;;;5093255;28;20066;-79
2021/04/19 08:09:33;;;;;;;24.10;19.10;;;205.70;2252.80;;;;;;5094197;28;20024;-78
2021/04/19 08:12:09;;;;;;;28.67;20.90;;;230.50;2252.80;;;;;;5109834;28;20115;-78
2021/04/19 08:14:51;;;;;;;63.05;21.08;;;205.50;2252.80;;;;;;5109722;28;20104;-79
2021/04/19 08:17:17;;;;;;;31.60;18.48;;;205.60;2252.80;;;;;;5094334;28;20460;-80
2021/04/19 08:19:42;;;;;;;26.13;19.77;;;205.60;2252.80;;;;;;5094009;28;20032;-79
2021/04/19 08:22:16;;;;;;;28.58;20.48;;;205.70;2252.80;;;;;;5093741;28;20032;-78
2021/04/19 08:24:42;;;;;;;25.58;20.80;;;205.60;2252.80;;;;;;5110433;28;20039;-78
2021/04/19 08:27:16;;;;;;;25.75;17.95;;;205.50;2252.80;;;;;;5109717;28;20051;-80
2021/04/19 08:29:47;;;;;;;24.55;18.90;;;205.60;2252.80;;;;;;5109665;28;20123;-78
2021/04/19 08:32:18;;;;;;;26.13;19.15;;;205.60;2252.80;;;;;;5093999;28;20027;-78
2021/04/19 08:34:45;;;;;;;26.05;20.00;;;205.70;2252.80;;;;;;5109604;28;20035;-79
2021/04/19 08:37:12;;;;;;;28.77;20.90;;;205.70;2252.80;;;;;;5109579;28;20075;-78
2021/04/19 08:39:40;;;;;;;30.80;21.30;;;205.70;2252.80;;;;;;5109279;28;20035;-78
2021/04/19 08:42:06;;;;;;;31.10;18.70;;;205.70;2252.80;;;;;;5109652;28;20450;-79
2021/04/19 08:44:34;;;;;;;37.60;25.48;;;205.40;2252.80;;;;;;5109458;28;20024;-79
2021/04/19 08:47:01;;;;;;;30.52;21.40;;;230.40;2252.80;;;;;;5093508;28;20028;-79
2021/04/19 08:49:28;;;;;;;28.40;21.33;;;230.50;2252.80;;;;;;5092042;28;20493;-79
2021/04/19 08:51:54;;;;;;;33.28;20.85;;;230.60;2252.80;;;;;;5109476;28;20036;-78
2021/04/19 08:54:23;;;;;;;28.73;21.02;;;230.60;2252.80;;;;;;5112843;28;20028;-78
2021/04/19 08:56:50;;;;;;;29.98;22.40;;;230.80;2252.80;;;;;;5113143;28;20024;-79
2021/04/19 08:59:17;;;;;;;27.90;21.75;;;230.60;2252.80;;;;;;5113547;28;20048;-78
2021/04/19 09:01:45;;;;;;;32.50;23.23;;;230.70;2252.80;;;;;;5097324;28;20352;-78
2021/04/19 09:04:11;;;;;;;33.85;25.20;;;230.60;2252.80;;;;;;5097261;28;20019;-78
2021/04/19 09:06:45;;;;;;;35.30;25.40;;;230.70;2252.80;;;;;;5113322;28;20028;-78
2021/04/19 09:09:41;;;;;;;36.22;26.67;;;230.70;2252.80;;;;;;5113253;28;20031;-78
2021/04/19 09:12:10;;;;;;;29.92;22.95;;;230.70;2252.80;;;;;;5107758;28;20036;-79
2021/04/19 09:14:43;;;;;;;29.17;23.02;;;230.60;2252.80;;;;;;5113621;28;20036;-78
2021/04/19 09:17:09;;;;;;;30.70;23.33;;;230.60;2252.80;;;;;;5112737;28;20032;-77
2021/04/19 09:19:36;;;;;;;36.45;26.35;;;230.50;2252.80;;;;;;5113152;28;20119;-78
2021/04/19 09:22:13;;;;;;;37.72;27.73;;;230.50;2252.80;;;;;;5113048;28;20115;-78
2021/04/19 09:25:11;;;;;;;38.30;25.52;;;230.70;2252.80;;;;;;5112958;28;20043;-79
2021/04/19 09:27:48;;;;;;;31.15;23.67;;;230.70;2252.80;;;;;;5088684;28;20036;-80
2021/04/19 09:30:25;;;;;;;31.33;25.10;;;230.60;2252.80;;;;;;5112823;28;20020;-77
2021/04/19 09:33:06;;;;;;;48.35;33.88;;;230.70;2252.80;;;;;;5105150;28;20383;-77
2021/04/19 09:35:48;;;;;;;41.05;31.40;;;230.90;2252.80;;;;;;5095348;28;20020;-77
2021/04/19 09:38:56;;;;;;;49.53;33.53;;;230.90;2252.80;;;;;;5094924;28;20027;-79
2021/04/19 09:41:22;;;;;;;46.20;31.67;;;231.00;2252.80;;;;;;5095867;28;20070;-77
2021/04/19 09:43:57;;;;;;;40.67;29.02;;;231.10;2252.80;;;;;;5095465;28;20024;-80
2021/04/19 09:46:26;;;;;;;34.95;24.23;;;231.10;2252.80;;;;;;5096214;28;20028;-75
2021/04/19 09:48:52;;;;;;;32.38;24.27;;;231.00;2252.80;;;;;;5096731;28;20024;-74
2021/04/19 09:51:28;;;;;;;50.97;38.30;;;231.10;2252.80;;;;;;5096688;28;20020;-75
2021/04/19 09:53:59;;;;;;;38.17;28.45;;;231.20;2252.80;;;;;;5095507;28;20024;-74
2021/04/19 09:56:33;;;;;;;33.47;22.85;;;231.20;2252.80;;;;;;5095383;28;20118;-75
2021/04/19 09:59:00;;;;;;;28.40;22.77;;;231.20;2252.80;;;;;;5094838;28;20081;-81
2021/04/19 10:01:28;;;;;;;30.05;23.63;;;231.20;2252.80;;;;;;5095611;28;20368;-85
2021/04/19 10:03:56;;;;;;;29.35;23.27;;;231.10;2252.80;;;;;;5094854;28;20544;-83
2021/04/19 10:06:25;;;;;;;31.80;23.42;;;231.20;2252.80;;;;;;5095648;28;20028;-86
2021/04/19 10:08:52;;;;;;;32.53;23.85;;;231.20;2252.80;;;;;;5096939;28;20471;-83
2021/04/19 10:11:24;;;;;;;30.58;24.35;;;231.10;2252.80;;;;;;5095996;28;20020;-83
2021/04/19 10:13:50;;;;;;;36.30;26.73;;;231.20;2252.80;;;;;;5095742;28;20024;-86
2021/04/19 10:16:17;;;;;;;28.98;23.38;;;231.20;2252.80;;;;;;5096444;28;20475;-84
2021/04/19 10:18:48;;;;;;;35.47;27.85;;;231.10;2252.80;;;;;;5095813;28;20028;-83
2021/04/19 10:21:29;;;;;;;36.13;29.48;;;231.20;2252.80;;;;;;5096964;28;20529;-86
2021/04/19 10:23:56;;;;;;;38.55;30.38;;;231.10;2252.80;;;;;;5096886;28;20101;-85
2021/04/19 10:26:33;;;;;;;39.80;31.58;;;231.20;2252.80;;;;;;5095146;28;20028;-82
2021/04/19 10:29:07;;;;;;;57.28;39.08;;;231.20;2252.80;;;;;;5095957;28;20078;-83
2021/04/19 10:31:33;;;;;;;47.55;33.55;;;231.30;2252.80;;;;;;5095450;28;20111;-84
2021/04/19 10:34:11;;;;;;;36.40;28.27;;;231.30;2252.80;;;;;;5095392;28;20047;-84
2021/04/19 10:36:46;;;;;;;42.15;28.98;;;231.30;2252.80;;;;;;5095346;28;20067;-84
2021/04/19 10:39:16;;;;;;;46.55;35.10;;;256.00;2252.80;;;;;;5096240;28;20475;-83
2021/04/19 10:41:42;;;;;;;33.13;25.45;;;256.00;2252.80;;;;;;5094942;28;20024;-82
2021/04/19 10:44:11;;;;;;;36.30;28.42;;;231.30;2252.80;;;;;;5095864;28;20119;-81
2021/04/19 10:46:40;;;;;;;30.52;22.73;;;231.30;2252.80;;;;;;5094029;28;20024;-81
2021/04/19 10:49:07;;;;;;;32.55;24.95;;;231.30;2252.80;;;;;;5087682;28;20025;-82
2021/04/19 10:51:35;;;;;;;46.67;36.35;;;231.20;2252.80;;;;;;5091165;28;20028;-80
2021/04/19 10:54:07;;;;;;;32.15;24.50;;;231.20;2252.80;;;;;;5088488;28;20032;-81
2021/04/19 10:56:34;;;;;;;34.33;26.50;;;231.20;2252.80;;;;;;5093724;28;20028;-83
2021/04/19 10:59:05;;;;;;;40.08;32.30;;;231.20;2252.80;;;;;;5095208;28;20016;-80
2021/04/19 11:01:34;;;;;;;41.33;32.85;;;256.00;2252.80;;;;;;5091681;28;20016;-80
2021/04/19 11:04:05;;;;;;;29.05;23.45;;;256.20;2252.80;;;;;;5089258;28;20095;-82
2021/04/19 11:06:31;;;;;;;31.27;23.55;;;256.20;2252.80;;;;;;5092352;28;20032;-78
2021/04/19 11:09:08;;;;;;;30.50;20.55;;;256.20;2252.80;;;;;;5093268;28;20119;-79
2021/04/19 11:11:37;;;;;;;27.55;22.10;;;256.10;2252.80;;;;;;5094977;28;20383;-79
2021/04/19 11:14:12;;;;;;;31.73;23.92;;;256.00;2252.80;;;;;;5095523;28;20027;-77
2021/04/19 11:17:04;;;;;;;45.10;34.38;;;256.10;2252.80;;;;;;5093246;28;20028;-74
2021/04/19 11:19:32;;;;;;;37.80;26.52;;;256.20;2252.80;;;;;;5093923;28;20024;-80
2021/04/19 11:21:59;;;;;;;32.60;25.88;;;256.20;2252.80;;;;;;5093885;28;20028;-79
2021/04/19 11:24:37;;;;;;;35.63;26.55;;;256.10;2252.80;;;;;;5093363;28;20032;-77
2021/04/19 11:27:10;;;;;;;42.63;32.92;;;256.00;2252.80;;;;;;5094189;28;20031;-76
2021/04/19 11:29:41;;;;;;;49.70;38.08;;;256.00;2252.80;;;;;;5093299;28;20032;-76
2021/04/19 11:32:26;;;;;;;45.00;35.25;;;256.00;2252.80;;;;;;5094932;28;20074;-78
2021/04/19 11:34:53;;;;;;;41.33;33.15;;;256.00;2252.80;;;;;;5093692;28;20023;-79
2021/04/19 11:37:37;;;;;;;38.03;29.92;;;256.10;2252.80;;;;;;5093344;28;20528;-79
2021/04/19 11:40:28;;;;;;;39.75;32.95;;;256.20;2252.80;;;;;;5093624;28;20020;-79
2021/04/19 11:42:54;;;;;;;49.80;36.88;;;256.20;2252.80;;;;;;5093793;28;20055;-82
2021/04/19 11:45:25;;;;;;;58.22;40.55;;;256.20;2252.80;;;;;;5093078;28;20433;-79
2021/04/19 11:47:51;;;;;;;60.80;42.95;;;256.30;2252.80;;;;;;5092479;28;20039;-78
2021/04/19 11:50:19;;;;;;;52.92;37.95;;;256.30;2252.80;;;;;;5092300;28;20028;-77
2021/04/19 11:52:49;;;;;;;57.13;43.80;;;256.30;2252.80;;;;;;5093588;28;20020;-78
2021/04/19 11:55:17;;;;;;;46.92;37.38;;;256.40;2252.80;;;;;;5093071;28;20429;-77
2021/04/19 11:57:46;;;;;;;44.38;34.92;;;256.40;2252.80;;;;;;5094545;28;20076;-79
2021/04/19 12:00:14;;;;;;;45.20;35.38;;;256.40;2252.80;;;;;;5094320;28;20024;-79
2021/04/19 12:02:40;;;;;;;53.78;37.72;;;256.40;2252.80;;;;;;5092789;28;20047;-79
2021/04/19 12:05:08;;;;;;;49.03;37.78;;;256.40;2252.80;;;;;;5094219;28;20060;-79
2021/04/19 12:07:34;;;;;;;49.90;37.92;;;256.40;2252.80;;;;;;5093075;28;20058;-78
2021/04/19 12:10:00;;;;;;;46.13;34.80;;;256.40;2252.80;;;;;;5092973;28;20050;-79
2021/04/19 12:12:26;;;;;;;56.03;41.05;;;256.40;2252.80;;;;;;5092346;28;20035;-78
2021/04/19 12:14:53;;;;;;;47.80;34.78;;;256.40;2252.80;;;;;;5092963;28;20038;-77